Time;durP1;ratioP1;P1;durP2;ratioP2;P2;SDS_P1;SDS_P2;PMS_P1;PMS_P2;Temp;Humidity;BMP_temperature;BMP_pressure;BME280_temperature;BME280_humidity;BME280_pressure;Samples;Min_cycle;Max_cycle;Signal;HPM_P1;HPM_P2
2022/09/07 00:02:22;;;;;;;21.85;12.85;;;19.50;99.90;;;;;;5001148;28;21084;-72
2022/09/07 00:04:49;;;;;;;16.52;10.60;;;19.30;99.90;;;;;;4996013;28;20269;-75
2022/09/07 00:07:16;;;;;;;16.42;10.52;;;19.30;99.90;;;;;;4998175;28;20231;-74
2022/09/07 00:09:43;;;;;;;15.35;8.10;;;19.10;99.90;;;;;;4998003;28;20211;-74
2022/09/07 00:12:10;;;;;;;12.48;7.28;;;19.00;99.90;;;;;;4982868;28;20203;-74
2022/09/07 00:14:37;;;;;;;9.93;5.63;;;18.90;99.90;;;;;;5007927;28;20210;-74
2022/09/07 00:17:04;;;;;;;6.20;5.25;;;18.80;99.90;;;;;;4992537;28;20203;-75
2022/09/07 00:19:31;;;;;;;7.65;4.07;;;18.90;99.90;;;;;;4980254;28;20215;-75
2022/09/07 00:22:02;;;;;;;5.28;3.95;;;18.50;99.90;;;;;;4991205;28;20219;-76
2022/09/07 00:24:29;;;;;;;7.45;3.90;;;18.50;99.90;;;;;;4990473;28;20241;-75
2022/09/07 00:26:57;;;;;;;6.25;3.78;;;;;;;;;;5007566;28;20214;-76
2022/09/07 00:29:24;;;;;;;7.07;3.77;;;18.20;99.90;;;;;;5001078;28;20245;-76
2022/09/07 00:31:53;;;;;;;5.83;3.73;;;18.20;99.90;;;;;;4992495;28;20297;-78
2022/09/07 00:34:20;;;;;;;4.43;2.83;;;18.10;99.90;;;;;;4996982;28;20215;-77
2022/09/07 00:36:47;;;;;;;3.83;3.40;;;18.10;99.90;;;;;;4981232;28;20553;-77
2022/09/07 00:39:15;;;;;;;4.43;3.20;;;18.10;99.90;;;;;;5002770;28;20209;-77
2022/09/07 00:41:41;;;;;;;3.40;2.70;;;18.10;99.90;;;;;;5006033;28;20289;-76
2022/09/07 00:44:42;;;;;;;3.57;2.77;;;18.00;99.90;;;;;;4996200;28;20315;-76
2022/09/07 00:47:18;;;;;;;3.27;2.60;;;18.10;99.90;;;;;;5000937;28;20211;-78
2022/09/07 00:49:50;;;;;;;4.70;2.60;;;18.10;99.90;;;;;;4994928;28;20216;-78
2022/09/07 00:52:19;;;;;;;5.60;3.03;;;18.20;99.90;;;;;;4998808;28;20226;-75
2022/09/07 00:54:51;;;;;;;3.27;2.40;;;18.10;99.90;;;;;;4983719;28;20199;-77
2022/09/07 00:57:19;;;;;;;4.53;2.58;;;18.10;99.90;;;;;;5005930;28;20684;-76
2022/09/07 00:59:49;;;;;;;4.07;2.60;;;18.20;99.90;;;;;;4998887;28;20215;-75
2022/09/07 01:02:16;;;;;;;2.87;2.40;;;18.20;99.90;;;;;;4999351;28;20273;-74
2022/09/07 01:04:47;;;;;;;4.57;2.60;;;18.20;99.90;;;;;;4987071;28;20236;-76
2022/09/07 01:07:14;;;;;;;4.07;2.37;;;18.20;99.90;;;;;;5002320;28;20234;-75
2022/09/07 01:09:41;;;;;;;4.00;2.40;;;18.10;99.90;;;;;;5002392;28;20250;-75
2022/09/07 01:12:08;;;;;;;5.53;2.80;;;18.10;99.90;;;;;;4992429;28;20205;-75
2022/09/07 01:14:39;;;;;;;3.50;2.50;;;18.10;99.90;;;;;;5005797;28;20264;-77
2022/09/07 01:17:20;;;;;;;4.10;3.27;;;18.10;99.90;;;;;;5011807;28;21064;-79
2022/09/07 01:20:15;;;;;;;4.60;3.07;;;18.00;99.90;;;;;;4987915;28;20222;-77
2022/09/07 01:23:04;;;;;;;4.13;2.70;;;18.00;99.90;;;;;;5001891;28;20226;-75
2022/09/07 01:25:41;;;;;;;4.63;2.50;;;18.00;99.90;;;;;;5006441;28;20226;-77
2022/09/07 01:28:23;;;;;;;6.63;3.07;;;18.00;99.90;;;;;;5005794;28;20560;-78
2022/09/07 01:30:50;;;;;;;5.80;3.30;;;18.00;99.90;;;;;;5004078;28;20214;-76
2022/09/07 01:33:39;;;;;;;5.03;3.00;;;17.90;99.90;;;;;;4998223;28;20218;-76
2022/09/07 01:36:25;;;;;;;3.57;2.80;;;18.00;99.90;;;;;;5000529;28;20226;-76
2022/09/07 01:38:55;;;;;;;7.37;3.40;;;18.00;99.90;;;;;;4983086;28;20211;-77
2022/09/07 01:41:49;;;;;;;3.10;2.60;;;18.00;99.90;;;;;;4995434;28;20215;-77
2022/09/07 01:44:34;;;;;;;4.97;2.63;;;18.00;99.90;;;;;;4987790;28;20682;-76
2022/09/07 01:47:21;;;;;;;5.97;3.50;;;18.00;99.90;;;;;;5002465;28;20663;-77
2022/09/07 01:50:10;;;;;;;7.70;3.87;;;18.10;99.90;;;;;;4991759;28;20693;-77
2022/09/07 01:52:59;;;;;;;4.57;3.23;;;18.00;99.90;;;;;;5008594;28;20700;-78
2022/09/07 01:55:34;;;;;;;4.97;3.10;;;18.10;99.90;;;;;;5004326;28;21001;-78
2022/09/07 01:58:10;;;;;;;7.40;3.70;;;18.10;99.90;;;;;;4996112;28;20210;-78
2022/09/07 02:00:41;;;;;;;4.77;3.40;;;18.10;99.90;;;;;;5003653;28;20212;-77
2022/09/07 02:03:21;;;;;;;6.03;3.33;;;18.10;99.90;;;;;;5008920;28;20214;-76
2022/09/07 02:05:57;;;;;;;7.30;4.17;;;18.10;99.90;;;;;;4995878;28;20743;-77
2022/09/07 02:08:36;;;;;;;5.13;3.47;;;18.10;99.90;;;;;;5001321;28;20214;-77
2022/09/07 02:11:10;;;;;;;6.07;3.70;;;18.10;99.90;;;;;;4999010;28;20695;-76
2022/09/07 02:13:53;;;;;;;5.73;3.73;;;18.10;99.90;;;;;;4990000;28;20246;-75
2022/09/07 02:16:25;;;;;;;4.80;4.00;;;18.10;99.90;;;;;;5007168;28;20207;-77
2022/09/07 02:18:58;;;;;;;5.97;3.70;;;18.20;99.90;;;;;;4999141;28;20218;-77
2022/09/07 02:21:37;;;;;;;6.43;4.10;;;18.20;99.90;;;;;;4999309;28;20226;-77
2022/09/07 02:24:10;;;;;;;5.47;4.20;;;18.20;99.90;;;;;;4999933;28;21000;-77
2022/09/07 02:26:39;;;;;;;7.53;3.85;;;18.20;99.90;;;;;;5002548;28;20265;-77
2022/09/07 02:29:06;;;;;;;5.53;4.07;;;18.20;99.90;;;;;;4999242;28;20204;-77
2022/09/07 02:31:33;;;;;;;4.97;3.60;;;18.20;99.90;;;;;;4999996;28;20210;-79
2022/09/07 02:34:02;;;;;;;4.40;3.77;;;18.20;99.90;;;;;;4998653;28;20211;-78
2022/09/07 02:36:34;;;;;;;7.00;3.45;;;18.30;99.90;;;;;;5006073;28;20214;-77
2022/09/07 02:39:01;;;;;;;5.67;3.90;;;18.30;99.90;;;;;;4999934;28;20207;-77
2022/09/07 02:41:29;;;;;;;6.07;3.80;;;18.30;99.90;;;;;;4986637;28;20723;-75
2022/09/07 02:43:57;;;;;;;4.57;3.77;;;18.30;99.90;;;;;;5004361;28;20226;-77
2022/09/07 02:46:27;;;;;;;6.77;3.53;;;18.30;99.90;;;;;;5002643;28;20210;-77
2022/09/07 02:49:12;;;;;;;4.70;3.33;;;18.30;99.90;;;;;;5002440;28;20214;-77
2022/09/07 02:51:58;;;;;;;7.88;3.70;;;18.30;99.90;;;;;;4995245;28;20219;-77
2022/09/07 02:54:46;;;;;;;4.22;3.63;;;18.30;99.90;;;;;;5000587;28;20216;-76
2022/09/07 02:57:37;;;;;;;7.67;4.60;;;18.30;99.90;;;;;;4998411;28;20202;-77
2022/09/07 03:00:11;;;;;;;5.68;3.50;;;18.30;99.90;;;;;;4998111;28;20710;-74
2022/09/07 03:02:48;;;;;;;3.97;3.57;;;18.30;99.90;;;;;;4998962;28;20295;-75
2022/09/07 03:05:23;;;;;;;7.73;4.13;;;18.30;99.90;;;;;;4998329;28;20230;-77
2022/09/07 03:07:56;;;;;;;11.73;4.03;;;18.30;99.90;;;;;;5002131;28;20598;-75
2022/09/07 03:10:24;;;;;;;4.90;3.47;;;18.30;99.90;;;;;;4997259;28;20206;-76
2022/09/07 03:12:51;;;;;;;6.23;3.83;;;18.30;99.90;;;;;;4985681;28;20238;-77
2022/09/07 03:15:24;;;;;;;7.17;3.87;;;18.20;99.90;;;;;;4984864;28;20685;-76
2022/09/07 03:17:52;;;;;;;6.90;3.35;;;18.30;99.90;;;;;;4995821;28;20219;-75
2022/09/07 03:20:20;;;;;;;5.33;4.00;;;18.30;99.90;;;;;;4988371;28;20222;-74
2022/09/07 03:22:50;;;;;;;9.53;3.70;;;18.30;99.90;;;;;;4996408;28;20234;-76
2022/09/07 03:25:18;;;;;;;5.87;3.80;;;18.30;99.90;;;;;;5000917;28;21060;-77
2022/09/07 03:27:45;;;;;;;5.70;4.03;;;18.30;99.90;;;;;;4995916;28;20237;-76
2022/09/07 03:30:13;;;;;;;6.03;3.23;;;18.20;99.90;;;;;;4985198;28;20207;-77
2022/09/07 03:32:40;;;;;;;6.35;4.03;;;18.20;99.90;;;;;;4983534;28;20639;-76
2022/09/07 03:35:07;;;;;;;5.35;3.90;;;18.20;99.90;;;;;;4982711;28;20211;-76
2022/09/07 03:37:36;;;;;;;5.90;4.33;;;18.20;99.90;;;;;;4997620;28;20223;-75
2022/09/07 03:40:06;;;;;;;9.10;4.40;;;18.20;99.90;;;;;;5003575;28;20203;-75
2022/09/07 03:42:34;;;;;;;5.60;4.50;;;18.20;99.90;;;;;;5000146;28;20327;-75
2022/09/07 03:45:01;;;;;;;8.25;4.55;;;18.10;99.90;;;;;;4983280;28;20392;-76
2022/09/07 03:47:28;;;;;;;9.00;5.27;;;18.10;99.90;;;;;;5007601;28;20868;-75
2022/09/07 03:49:55;;;;;;;5.97;4.95;;;18.10;99.90;;;;;;4998124;28;20812;-76
2022/09/07 03:52:22;;;;;;;6.10;4.57;;;18.10;99.90;;;;;;4996823;28;20365;-76
2022/09/07 03:54:49;;;;;;;9.03;4.70;;;18.10;99.90;;;;;;4998978;28;20219;-76
2022/09/07 03:57:15;;;;;;;7.00;5.40;;;18.10;99.90;;;;;;4980944;28;20202;-76
2022/09/07 03:59:42;;;;;;;7.07;4.90;;;18.10;99.90;;;;;;4984328;28;20264;-75
2022/09/07 04:02:09;;;;;;;5.53;4.53;;;18.00;99.90;;;;;;5004582;28;20230;-76
2022/09/07 04:04:36;;;;;;;6.03;4.20;;;18.00;99.90;;;;;;4997395;28;20229;-75
2022/09/07 04:07:05;;;;;;;6.80;4.83;;;18.00;99.90;;;;;;5006294;28;20230;-75
2022/09/07 04:09:32;;;;;;;8.47;5.00;;;18.00;99.90;;;;;;5000630;28;20206;-75
2022/09/07 04:11:59;;;;;;;10.67;5.30;;;17.90;99.90;;;;;;4999977;28;20209;-76
2022/09/07 04:14:26;;;;;;;6.83;4.90;;;17.90;99.90;;;;;;4997415;28;20203;-76
2022/09/07 04:16:53;;;;;;;8.10;5.47;;;17.90;99.90;;;;;;5008168;28;20564;-74
2022/09/07 04:19:20;;;;;;;8.03;5.40;;;17.90;99.90;;;;;;4988548;28;20281;-76
2022/09/07 04:21:47;;;;;;;8.70;5.30;;;17.80;99.90;;;;;;4988640;28;20222;-76
2022/09/07 04:24:15;;;;;;;6.43;5.17;;;17.80;99.90;;;;;;4986007;28;20261;-75
2022/09/07 04:26:43;;;;;;;7.33;5.23;;;17.80;99.90;;;;;;5004993;28;20206;-76
2022/09/07 04:29:11;;;;;;;5.67;4.80;;;17.80;99.90;;;;;;5003781;28;20321;-75
2022/09/07 04:31:38;;;;;;;7.47;4.77;;;17.70;99.90;;;;;;5003425;28;20861;-74
2022/09/07 04:34:06;;;;;;;8.00;5.70;;;17.70;99.90;;;;;;5003702;28;20222;-76
2022/09/07 04:36:33;;;;;;;9.77;5.60;;;17.70;99.90;;;;;;5009342;28;20660;-75
2022/09/07 04:39:02;;;;;;;7.20;5.60;;;17.70;99.90;;;;;;5001782;28;20199;-75
2022/09/07 04:41:31;;;;;;;8.13;5.67;;;17.70;99.90;;;;;;4994059;28;20210;-76
2022/09/07 04:44:00;;;;;;;7.47;5.37;;;17.80;99.90;;;;;;4996384;28;20211;-76
2022/09/07 04:46:36;;;;;;;7.63;4.83;;;17.90;99.90;;;;;;4978379;28;20812;-75
2022/09/07 04:49:12;;;;;;;10.60;5.93;;;17.90;99.90;;;;;;4994666;28;20199;-75
2022/09/07 04:51:41;;;;;;;8.27;5.70;;;17.90;99.90;;;;;;4997189;28;20637;-75
2022/09/07 04:54:09;;;;;;;10.13;6.67;;;18.00;99.90;;;;;;4994044;28;20272;-75
2022/09/07 04:56:36;;;;;;;11.97;6.47;;;18.00;99.90;;;;;;4997844;28;20218;-75
2022/09/07 04:59:03;;;;;;;10.17;6.73;;;18.00;99.90;;;;;;4996504;28;20210;-77
2022/09/07 05:01:30;;;;;;;10.23;6.70;;;18.10;99.90;;;;;;4995680;28;20283;-75
2022/09/07 05:04:00;;;;;;;9.68;7.40;;;18.10;99.90;;;;;;4999410;28;20233;-76
2022/09/07 05:06:27;;;;;;;11.38;6.65;;;18.10;99.90;;;;;;4997503;28;20277;-76
2022/09/07 05:08:55;;;;;;;11.47;6.57;;;18.10;99.90;;;;;;4985679;28;20962;-76
2022/09/07 05:11:23;;;;;;;12.07;6.27;;;18.10;99.90;;;;;;5002557;28;20198;-78
2022/09/07 05:14:00;;;;;;;11.57;6.47;;;18.20;99.90;;;;;;4982638;28;20283;-75
2022/09/07 05:16:27;;;;;;;7.43;5.72;;;18.20;99.90;;;;;;4991913;28;20202;-76
2022/09/07 05:19:00;;;;;;;11.55;6.80;;;18.20;99.90;;;;;;4993853;28;20571;-76
2022/09/07 05:21:29;;;;;;;11.07;6.35;;;18.30;99.90;;;;;;4995901;28;20406;-75
2022/09/07 05:23:57;;;;;;;10.15;6.50;;;18.30;99.90;;;;;;4977110;28;20230;-76
2022/09/07 05:26:27;;;;;;;7.70;5.88;;;18.30;99.90;;;;;;4992163;28;20706;-75
2022/09/07 05:28:55;;;;;;;9.67;6.47;;;18.40;99.90;;;;;;4997752;28;20257;-77
2022/09/07 05:31:42;;;;;;;8.93;6.28;;;18.40;99.90;;;;;;4995206;28;20216;-75
2022/09/07 05:34:09;;;;;;;8.65;6.53;;;18.50;99.90;;;;;;5002770;28;20205;-76
2022/09/07 05:36:56;;;;;;;8.80;6.88;;;18.50;99.90;;;;;;4998461;28;20600;-77
2022/09/07 05:39:23;;;;;;;11.38;7.05;;;18.60;99.90;;;;;;4995088;28;20267;-76
2022/09/07 05:41:51;;;;;;;9.70;6.78;;;18.60;99.90;;;;;;4978590;28;20677;-76
2022/09/07 05:44:18;;;;;;;10.52;6.60;;;18.60;99.90;;;;;;4996916;28;20250;-77
2022/09/07 05:47:05;;;;;;;9.32;6.57;;;18.60;99.90;;;;;;4998089;28;21413;-76
2022/09/07 05:49:32;;;;;;;11.50;7.45;;;18.60;99.90;;;;;;4999333;28;20199;-76
2022/09/07 05:51:59;;;;;;;11.43;7.40;;;18.60;99.90;;;;;;4993076;28;20227;-76
2022/09/07 05:54:26;;;;;;;10.27;7.40;;;18.70;99.90;;;;;;4984374;28;20726;-77
2022/09/07 05:56:53;;;;;;;11.65;8.88;;;18.70;99.90;;;;;;4995218;28;20210;-79
2022/09/07 05:59:20;;;;;;;14.73;8.80;;;18.70;99.90;;;;;;4993278;28;20206;-75
2022/09/07 06:01:46;;;;;;;17.77;10.68;;;18.70;99.90;;;;;;4996950;28;20696;-76
2022/09/07 06:04:13;;;;;;;16.52;11.10;;;18.80;99.90;;;;;;4996023;28;20203;-77
2022/09/07 06:06:43;;;;;;;17.45;12.02;;;18.80;99.90;;;;;;4993183;28;20230;-76
2022/09/07 06:09:30;;;;;;;21.45;14.30;;;18.90;99.90;;;;;;4997402;28;20534;-77
2022/09/07 06:11:57;;;;;;;21.63;14.05;;;18.90;99.90;;;;;;4990702;28;20211;-77
2022/09/07 06:14:24;;;;;;;28.48;17.15;;;19.00;99.90;;;;;;4992030;28;20664;-77
2022/09/07 06:16:51;;;;;;;24.55;17.38;;;19.10;99.90;;;;;;4995755;28;20225;-78
2022/09/07 06:19:19;;;;;;;30.17;19.73;;;19.10;99.90;;;;;;4979659;28;20204;-77
2022/09/07 06:21:46;;;;;;;31.88;20.40;;;19.00;99.90;;;;;;4993585;28;20280;-77
2022/09/07 06:24:12;;;;;;;30.48;21.77;;;19.10;99.90;;;;;;4978333;28;20211;-77
2022/09/07 06:26:39;;;;;;;36.40;24.17;;;19.10;99.90;;;;;;4991552;28;20231;-76
2022/09/07 06:29:07;;;;;;;34.75;22.98;;;19.00;99.90;;;;;;4984873;28;20202;-77
2022/09/07 06:31:34;;;;;;;31.20;22.27;;;19.00;99.90;;;;;;4993678;28;20214;-75
2022/09/07 06:34:21;;;;;;;33.08;23.48;;;18.90;99.90;;;;;;4979078;28;20214;-75
2022/09/07 06:36:48;;;;;;;32.92;23.10;;;18.90;99.90;;;;;;4994711;28;20239;-76
2022/09/07 06:39:15;;;;;;;33.90;24.00;;;18.90;99.90;;;;;;4994560;28;20608;-77
2022/09/07 06:41:42;;;;;;;33.72;23.45;;;18.80;99.90;;;;;;4995469;28;20225;-76
2022/09/07 06:44:24;;;;;;;29.67;21.10;;;18.90;99.90;;;;;;4996836;28;20263;-76
2022/09/07 06:46:51;;;;;;;32.58;22.80;;;18.90;99.90;;;;;;4999015;28;20308;-76
2022/09/07 06:49:33;;;;;;;31.20;21.77;;;18.90;99.90;;;;;;4995111;28;20627;-75
2022/09/07 06:52:01;;;;;;;31.88;22.25;;;19.00;99.90;;;;;;4992555;28;20738;-75
2022/09/07 06:54:28;;;;;;;31.52;22.88;;;18.90;99.90;;;;;;4975605;28;20668;-76
2022/09/07 06:57:15;;;;;;;33.47;21.77;;;18.90;99.90;;;;;;4980899;28;20354;-77
2022/09/07 06:59:42;;;;;;;36.33;23.08;;;18.90;99.90;;;;;;4990964;28;20273;-76
2022/09/07 07:02:11;;;;;;;31.13;21.90;;;19.00;99.90;;;;;;4997319;28;20239;-76
2022/09/07 07:04:38;;;;;;;31.40;22.15;;;19.10;99.90;;;;;;4985171;28;20221;-77
2022/09/07 07:07:11;;;;;;;27.90;20.73;;;19.20;99.90;;;;;;4989348;28;20300;-75
2022/09/07 07:09:39;;;;;;;27.02;20.42;;;19.30;99.90;;;;;;5003705;28;20210;-75
2022/09/07 07:12:05;;;;;;;28.30;19.73;;;19.50;99.90;;;;;;5008196;28;20218;-77
2022/09/07 07:14:34;;;;;;;26.65;18.88;;;19.70;99.90;;;;;;5003670;28;20203;-75
2022/09/07 07:17:04;;;;;;;25.65;18.67;;;19.80;99.90;;;;;;4984998;28;20242;-74
2022/09/07 07:19:31;;;;;;;23.35;18.15;;;20.00;99.90;;;;;;5010680;28;20305;-76
2022/09/07 07:21:57;;;;;;;24.42;17.55;;;20.20;99.90;;;;;;5002616;28;20230;-76
2022/09/07 07:24:44;;;;;;;21.48;16.67;;;20.30;99.90;;;;;;5004994;28;20225;-76
2022/09/07 07:27:11;;;;;;;22.27;15.95;;;20.70;99.90;;;;;;5003235;28;20579;-75
2022/09/07 07:29:38;;;;;;;20.73;16.52;;;20.90;99.90;;;;;;5001863;28;20675;-75
2022/09/07 07:32:05;;;;;;;25.08;16.90;;;21.00;99.90;;;;;;4999723;28;20529;-75
2022/09/07 07:34:32;;;;;;;20.98;15.82;;;21.00;99.90;;;;;;5000064;28;20544;-76
2022/09/07 07:36:59;;;;;;;20.90;15.48;;;20.90;99.90;;;;;;4996534;28;20258;-76
2022/09/07 07:39:26;;;;;;;20.90;16.63;;;20.80;99.90;;;;;;5000351;28;20248;-76
2022/09/07 07:42:13;;;;;;;21.50;16.85;;;20.70;99.90;;;;;;4998870;28;20576;-75
2022/09/07 07:44:40;;;;;;;20.20;16.50;;;20.60;99.90;;;;;;4999891;28;20309;-75
2022/09/07 07:47:07;;;;;;;20.10;16.27;;;20.60;99.90;;;;;;4998641;28;20266;-74
2022/09/07 07:49:34;;;;;;;23.30;17.13;;;20.50;99.90;;;;;;5002728;28;20203;-74
2022/09/07 07:52:01;;;;;;;20.73;16.25;;;20.50;99.90;;;;;;5003844;28;20317;-75
2022/09/07 07:54:48;;;;;;;18.60;14.98;;;20.50;99.90;;;;;;5005488;28;20194;-76
2022/09/07 07:57:18;;;;;;;16.52;12.75;;;21.00;99.90;;;;;;4994022;28;20487;-75
2022/09/07 07:59:45;;;;;;;14.15;12.45;;;21.70;99.90;;;;;;4992816;28;20214;-75
2022/09/07 08:02:15;;;;;;;15.80;12.90;;;22.40;99.90;;;;;;4997402;28;20299;-78
2022/09/07 08:04:43;;;;;;;16.20;12.30;;;23.20;99.90;;;;;;5008955;28;20678;-75
2022/09/07 08:07:13;;;;;;;17.20;12.65;;;23.20;99.90;;;;;;5005086;28;20235;-76
2022/09/07 08:09:41;;;;;;;14.88;12.35;;;23.30;99.90;;;;;;5001453;28;20211;-76
2022/09/07 08:12:11;;;;;;;15.43;12.18;;;23.00;99.90;;;;;;4983256;28;20207;-77
2022/09/07 08:14:42;;;;;;;21.92;12.60;;;23.10;99.90;;;;;;5002473;28;20245;-75
2022/09/07 08:17:10;;;;;;;15.73;12.82;;;23.00;99.90;;;;;;4999694;28;20273;-75
2022/09/07 08:19:37;;;;;;;15.63;11.88;;;23.00;99.90;;;;;;4989443;28;20723;-76
2022/09/07 08:22:05;;;;;;;17.02;13.07;;;22.50;99.90;;;;;;5001976;28;20688;-75
2022/09/07 08:24:32;;;;;;;18.10;12.85;;;22.70;99.90;;;;;;5003530;28;20298;-75
2022/09/07 08:26:59;;;;;;;17.35;13.07;;;22.60;99.90;;;;;;4999616;28;20228;-76
2022/09/07 08:29:26;;;;;;;17.67;14.15;;;22.50;99.90;;;;;;5000470;28;20253;-75
2022/09/07 08:31:53;;;;;;;18.45;14.13;;;22.40;99.90;;;;;;4982508;28;20523;-76
2022/09/07 08:34:20;;;;;;;16.15;13.15;;;22.20;99.90;;;;;;5000926;28;20203;-74
2022/09/07 08:36:47;;;;;;;15.02;12.35;;;22.20;99.90;;;;;;4995774;28;20660;-76
2022/09/07 08:39:14;;;;;;;14.10;12.18;;;22.60;99.90;;;;;;4999414;28;20203;-76
2022/09/07 08:41:55;;;;;;;16.80;12.45;;;23.60;99.90;;;;;;4981737;28;20207;-75
2022/09/07 08:44:34;;;;;;;17.67;12.15;;;23.80;99.90;;;;;;5000807;28;20769;-75
2022/09/07 08:47:28;;;;;;;15.25;12.30;;;23.90;99.90;;;;;;4997117;28;20284;-75
2022/09/07 08:50:00;;;;;;;14.73;12.35;;;23.90;99.90;;;;;;4995522;28;20639;-77
2022/09/07 08:52:48;;;;;;;15.98;12.32;;;23.90;99.90;;;;;;4999486;28;20654;-75
2022/09/07 08:55:54;;;;;;;14.90;12.73;;;24.00;99.90;;;;;;5001147;28;20203;-74
2022/09/07 08:58:32;;;;;;;13.50;12.05;;;24.00;99.90;;;;;;4925653;29;21135;-73
2022/09/07 09:01:15;;;;;;;15.55;12.93;;;23.90;99.90;;;;;;4985739;28;20227;-75
2022/09/07 09:03:59;;;;;;;12.85;10.77;;;24.10;99.90;;;;;;4998118;28;20694;-75
2022/09/07 09:07:04;;;;;;;15.02;12.85;;;24.30;99.90;;;;;;4996738;28;20725;-74
2022/09/07 09:09:49;;;;;;;14.75;13.15;;;24.50;99.90;;;;;;4999496;28;20203;-75
2022/09/07 09:12:32;;;;;;;17.02;13.25;;;24.50;99.90;;;;;;4984890;28;20238;-76
2022/09/07 09:15:55;;;;;;;16.05;13.55;;;24.30;99.90;;;;;;4985225;28;20258;-74
2022/09/07 09:18:47;;;;;;;15.38;12.98;;;24.10;99.90;;;;;;4982105;28;20262;-74
2022/09/07 09:21:17;;;;;;;15.38;12.98;;;24.00;99.90;;;;;;4997148;28;20234;-75
2022/09/07 09:23:54;;;;;;;13.93;12.60;;;24.30;99.90;;;;;;4976802;28;20207;-75
2022/09/07 09:26:26;;;;;;;17.63;13.60;;;24.50;99.90;;;;;;4997661;28;20238;-75
2022/09/07 09:28:54;;;;;;;15.88;12.50;;;24.80;99.90;;;;;;4979628;28;20221;-75
2022/09/07 09:31:25;;;;;;;14.25;12.73;;;25.10;99.90;;;;;;5007233;28;20238;-74
2022/09/07 09:34:07;;;;;;;15.02;13.35;;;25.10;99.90;;;;;;4996011;28;20264;-75
2022/09/07 09:36:40;;;;;;;15.82;12.82;;;24.80;99.90;;;;;;4987118;28;20559;-75
2022/09/07 09:39:30;;;;;;;14.18;12.73;;;24.60;99.90;;;;;;4986096;28;20218;-76
2022/09/07 09:42:29;;;;;;;13.20;11.25;;;24.60;99.90;;;;;;4978874;28;20221;-76
2022/09/07 09:45:02;;;;;;;15.60;12.88;;;24.80;99.90;;;;;;4979023;28;20214;-76
2022/09/07 09:47:34;;;;;;;11.50;10.38;;;25.10;99.90;;;;;;4996698;28;20230;-74
2022/09/07 09:50:18;;;;;;;13.35;11.95;;;25.30;99.90;;;;;;4980291;28;20222;-75
2022/09/07 09:53:17;;;;;;;13.23;11.40;;;25.50;99.90;;;;;;4991915;28;20222;-75
2022/09/07 09:55:53;;;;;;;13.88;11.85;;;25.50;99.90;;;;;;4996029;28;20206;-75
2022/09/07 09:58:32;;;;;;;15.00;12.68;;;25.60;99.90;;;;;;4992718;28;20301;-75
2022/09/07 10:01:31;;;;;;;11.85;10.65;;;25.40;99.90;;;;;;4981025;28;20330;-73
2022/09/07 10:04:33;;;;;;;11.55;10.35;;;25.40;99.90;;;;;;4995750;28;20309;-76
2022/09/07 10:07:20;;;;;;;12.38;11.07;;;25.50;99.90;;;;;;5006445;28;20248;-76
2022/09/07 10:09:52;;;;;;;13.40;11.23;;;25.40;99.90;;;;;;4999316;28;20211;-77
2022/09/07 10:12:32;;;;;;;12.50;11.18;;;25.30;99.90;;;;;;4990582;28;20226;-77
2022/09/07 10:15:05;;;;;;;13.48;10.80;;;25.00;99.90;;;;;;5003860;28;20263;-77
2022/09/07 10:17:40;;;;;;;12.77;9.93;;;24.70;99.90;;;;;;5002373;28;20402;-77
2022/09/07 10:20:16;;;;;;;12.90;10.25;;;24.60;99.90;;;;;;4996699;28;20264;-78
2022/09/07 10:23:03;;;;;;;10.82;9.00;;;24.80;99.90;;;;;;4979490;28;20293;-76
2022/09/07 10:25:32;;;;;;;12.38;9.43;;;25.00;99.90;;;;;;5002235;28;20272;-76
2022/09/07 10:28:15;;;;;;;11.45;8.70;;;25.20;99.90;;;;;;5007379;28;20310;-76
2022/09/07 10:31:23;;;;;;;13.07;10.82;;;25.30;99.90;;;;;;4984650;28;20726;-76
2022/09/07 10:34:34;;;;;;;10.98;9.88;;;25.40;99.90;;;;;;4921612;29;20217;-76
2022/09/07 10:37:07;;;;;;;12.63;10.88;;;25.50;99.90;;;;;;4918812;29;20326;-76
2022/09/07 10:39:41;;;;;;;11.20;9.20;;;25.60;99.90;;;;;;4976208;28;20249;-77
2022/09/07 10:42:08;;;;;;;11.90;10.70;;;25.60;99.90;;;;;;4999986;28;20206;-77
2022/09/07 10:44:59;;;;;;;11.65;10.38;;;25.80;99.90;;;;;;4997437;28;20200;-77
2022/09/07 10:47:29;;;;;;;11.60;9.90;;;25.80;99.90;;;;;;4993957;28;20226;-77
2022/09/07 10:50:03;;;;;;;11.75;10.30;;;25.90;99.90;;;;;;5003313;28;20213;-76
2022/09/07 10:53:29;;;;;;;8.65;7.78;;;26.20;99.90;;;;;;4999022;28;20218;-79
2022/09/07 10:56:13;;;;;;;8.25;6.80;;;26.50;99.90;;;;;;4985334;28;20690;-77
2022/09/07 10:58:54;;;;;;;7.82;7.03;;;26.70;99.90;;;;;;4978216;28;20203;-77
2022/09/07 11:02:02;;;;;;;6.95;6.25;;;26.70;99.90;;;;;;4999641;28;20316;-77
2022/09/07 11:04:46;;;;;;;6.70;5.75;;;26.80;99.90;;;;;;4984908;28;20276;-78
2022/09/07 11:08:03;;;;;;;8.77;6.68;;;26.70;99.90;;;;;;5004886;28;20451;-77
2022/09/07 11:10:40;;;;;;;9.52;7.28;;;26.60;99.90;;;;;;4982793;28;20225;-78
2022/09/07 11:13:12;;;;;;;7.85;7.05;;;26.50;99.90;;;;;;5001219;28;20257;-77
2022/09/07 11:15:51;;;;;;;9.88;7.25;;;26.40;99.90;;;;;;5000066;28;20206;-78
2022/09/07 11:18:34;;;;;;;9.88;7.78;;;26.40;99.90;;;;;;4991284;28;20211;-78
2022/09/07 11:21:05;;;;;;;8.20;7.00;;;26.70;99.90;;;;;;5004423;28;20345;-77
2022/09/07 11:23:57;;;;;;;8.30;6.93;;;26.70;99.90;;;;;;4998204;28;20208;-79
2022/09/07 11:26:31;;;;;;;9.95;6.90;;;26.80;99.90;;;;;;4986013;28;20226;-79
2022/09/07 11:29:05;;;;;;;7.35;6.43;;;27.00;99.90;;;;;;4981529;28;20226;-77
2022/09/07 11:32:06;;;;;;;6.40;5.80;;;27.10;99.90;;;;;;4993215;28;20726;-77
2022/09/07 11:34:46;;;;;;;7.05;6.35;;;27.30;99.90;;;;;;4984423;28;20210;-78
2022/09/07 11:37:41;;;;;;;7.15;6.45;;;27.40;99.90;;;;;;4999993;28;20223;-83
2022/09/07 11:40:26;;;;;;;6.43;5.57;;;27.60;99.90;;;;;;4993018;28;20298;-78
2022/09/07 11:43:04;;;;;;;7.88;5.60;;;27.70;99.90;;;;;;4998739;28;20210;-78
2022/09/07 11:45:39;;;;;;;6.78;5.20;;;28.00;99.90;;;;;;4997008;28;20297;-79
2022/09/07 11:48:33;;;;;;;6.50;5.22;;;28.10;99.90;;;;;;4996378;28;20240;-78
2022/09/07 11:51:12;;;;;;;8.23;5.38;;;28.20;99.90;;;;;;5000610;28;20214;-78
2022/09/07 11:53:49;;;;;;;6.60;5.60;;;28.30;99.90;;;;;;5003463;28;20282;-80
2022/09/07 11:56:34;;;;;;;6.22;5.40;;;28.40;99.90;;;;;;5007820;28;20693;-78
2022/09/07 11:59:30;;;;;;;5.68;4.97;;;28.40;99.90;;;;;;5007029;28;20734;-79
2022/09/07 12:02:17;;;;;;;9.93;7.15;;;28.30;99.90;;;;;;5005859;28;20242;-79
2022/09/07 12:05:09;;;;;;;8.43;5.70;;;27.90;99.90;;;;;;5007344;28;20207;-79
2022/09/07 12:08:12;;;;;;;7.97;6.22;;;27.80;99.90;;;;;;5004597;28;20270;-79
2022/09/07 12:11:30;;;;;;;7.75;5.88;;;27.90;99.90;;;;;;4930696;29;20332;-79
2022/09/07 12:14:18;;;;;;;7.03;5.90;;;27.90;99.90;;;;;;4913846;29;20205;-79
2022/09/07 12:16:53;;;;;;;6.43;5.32;;;27.90;99.90;;;;;;4908513;29;20269;-80
2022/09/07 12:19:25;;;;;;;7.55;6.75;;;28.00;99.90;;;;;;4974468;28;20218;-79
2022/09/07 12:21:52;;;;;;;8.25;6.82;;;28.20;99.90;;;;;;4983702;28;20233;-78
2022/09/07 12:24:38;;;;;;;7.32;6.47;;;27.90;99.90;;;;;;5005247;28;20262;-82
2022/09/07 12:27:08;;;;;;;8.10;6.32;;;27.70;99.90;;;;;;4998644;28;20239;-79
2022/09/07 12:29:35;;;;;;;7.38;6.20;;;27.50;99.90;;;;;;5003939;28;20245;-78
2022/09/07 12:32:03;;;;;;;6.95;6.20;;;27.40;99.90;;;;;;5005375;28;20320;-79
2022/09/07 12:34:53;;;;;;;6.30;4.85;;;27.40;99.90;;;;;;4998847;28;20290;-79
2022/09/07 12:37:37;;;;;;;4.95;4.40;;;27.30;99.90;;;;;;4997547;28;20311;-80
2022/09/07 12:40:26;;;;;;;5.72;4.45;;;27.20;99.90;;;;;;5001374;28;20227;-79
2022/09/07 12:43:11;;;;;;;6.63;4.10;;;27.10;99.90;;;;;;4992510;28;20203;-80
2022/09/07 12:45:38;;;;;;;4.68;3.92;;;27.00;99.90;;;;;;4998297;28;20222;-81
2022/09/07 12:48:36;;;;;;;4.70;3.55;;;27.00;99.90;;;;;;4996904;28;20261;-80
2022/09/07 12:51:28;;;;;;;5.75;3.78;;;27.10;99.90;;;;;;4975190;28;20215;-79
2022/09/07 12:54:40;;;;;;;6.88;3.85;;;27.20;99.90;;;;;;4980064;28;20207;-81
2022/09/07 12:57:29;;;;;;;3.38;3.03;;;27.20;99.90;;;;;;5000053;28;20311;-76
2022/09/07 13:00:17;;;;;;;6.25;2.70;;;27.20;99.90;;;;;;4981178;28;20249;-80
2022/09/07 13:03:09;;;;;;;5.25;2.97;;;27.30;99.90;;;;;;4997958;28;20754;-78
2022/09/07 13:06:16;;;;;;;3.35;2.60;;;27.50;99.90;;;;;;5001431;28;20215;-78
2022/09/07 13:09:05;;;;;;;5.05;2.22;;;27.40;99.90;;;;;;4996488;28;20218;-79
2022/09/07 13:11:39;;;;;;;3.45;2.10;;;27.30;99.90;;;;;;4983266;28;20206;-79
2022/09/07 13:14:12;;;;;;;3.65;2.33;;;27.50;99.90;;;;;;4981736;28;20257;-79
2022/09/07 13:16:44;;;;;;;3.05;1.70;;;27.60;99.90;;;;;;4996487;28;20250;-79
2022/09/07 13:19:49;;;;;;;4.50;2.10;;;27.60;99.90;;;;;;4995424;28;20221;-78
2022/09/07 13:22:32;;;;;;;3.20;2.13;;;27.80;99.90;;;;;;4998672;28;20261;-77